Airfield :







YOU CAN JOIN US ON...

 
LOGIN :

Register | Disclaimer

   EN    FR    IT 

 









Legend :    VFR   Marginal VFR   IFR   Intensive IFR   Very Intensive IFR
Visi :
Ceiling :
>= 8 km
>= 3000ft
5 to 8 km
1000 to 3000 ft
1500m to 5 km
500 to 1000 ft
800 to 1500m
200 to 500 ft
< 800m
< 200 ft
Symbols :   Thunderstorms  Fog  Heavy snow  Heavy precipitations  Wind > 20 kt






- Airport Elevation : 626 ft


KCAR - Caribou Municipal

CURRENT METAR :
  • 171254Z AUTO 34008G15KT 10SM FEW016 BKN050 BKN060 M08/M12 A3003 RMK AO2 SLP182 T10781117

EXPIRED METARs :
  • 171154Z AUTO 32009KT 10SM OVC031 M06/M10 A2999 RMK AO2 PRESRR SLP168 60000 T10611100 11017 21061 53037
  • 171054Z AUTO 34012G21KT 10SM OVC018 M05/M08 A2994 RMK AO2 SLP152 T10501083
  • 171013Z AUTO 30011G16KT 10SM SCT018 BKN024 OVC046 M02/M06 A2990 RMK AO2 T10171061
  • 170954Z AUTO 23005KT 10SM FEW026 FEW042 OVC095 M02/M06 A2989 RMK AO2 SLP132 T10221061

TAF KCAR
Valid from the 17 at 12:00 until the 18 at 12:00 UTC


171147Z 1712/1812 32008G15KT 6SM -SHSN OVC028
FM171500 33008G15KT P6SM -SHSN BKN035
FM171900 32009G15KT P6SM SCT045
FM172300 33004KT P6SM FEW100
FM181000 VRB02KT P6SM BKN220



MET'MAP, your aeronautical weather chart ! - Copyright ORBIFLY December 2007 - Disclaimer

ORBIFLY MET'MAP TEAM :

Programming & Development : Alexandra Zaïnal
Concept & original design : Baudouin d'Aumeries
Assistance for programming : Marc-Olivier Méhu
Technical & hardware support : Manuel Goepfert

Contact : metmap@orbifly.com




SOURCES & CREDITS :

   NOAA